Bi Jia Shan — VRJG7 — position and weather

sailwx.info

Track history (hours):
 
Tides and Currents Weather Stations Pressure Air Temp Water Temp Dewpoint Dewpoint Depression Visibility Wind Speed Wind Dir Waves Ship Positions

Bi Jia Shan

Last reported at 2018-Jul-08 00:51 UTC. Time now 2018-Jul-16 04:40 UTC.
Position N 22°02' E 119°36'.
Warning: this ship's position is 8 days out of date.

Length 189 m; draft 11.3 m.

Type: Cargo ship. MMSI: 477847500.

Date/timePositionNaut miles runAvg speedWind from/ knotsBaromVisibWave heightAir tempDewpointWater temp
2018-Jul-08 00:51N 22°02' E 119°36'412.0
2018-Jul-08 00:30N 22°05' E 119°38'712.1
2018-Jul-07 23:56N 22°11' E 119°42'512.1
2018-Jul-07 23:30N 22°16' E 119°45'911.8
2018-Jul-07 22:46N 22°23' E 119°50'311.3
2018-Jul-07 22:30N 22°26' E 119°51'511.1
2018-Jul-07 22:00N 22°31' E 119°52'611.2
2018-Jul-07 21:30N 22°37' E 119°53'611.3
2018-Jul-07 21:00N 22°42' E 119°53'611.1
2018-Jul-07 20:30N 22°48' E 119°53'  
2018-Jul-04 15:48N 34°50' E 129°11'711.9
2018-Jul-04 15:11N 34°56' E 129°16'411.7
2018-Jul-04 14:51N 34°60' E 129°19'  
Track history (hours):
 
Tides and Currents Weather Stations Pressure Air Temp Water Temp Dewpoint Dewpoint Depression Visibility Wind Speed Wind Dir Waves Ship Positions

Bi Jia Shan

Last reported at 2018-Jul-08 00:51 UTC. Time now 2018-Jul-16 04:40 UTC.
Position N 22°02' E 119°36'.
Warning: this ship's position is 8 days out of date.

Length 189 m; draft 11.3 m.

Type: Cargo ship. MMSI: 477847500.

Date/timePositionNaut miles runAvg speedWind from/ knotsBaromVisibWave heightAir tempDewpointWater temp
2018-Jul-08 00:51N 22°02' E 119°36'412.0
2018-Jul-08 00:30N 22°05' E 119°38'712.1
2018-Jul-07 23:56N 22°11' E 119°42'512.1
2018-Jul-07 23:30N 22°16' E 119°45'911.8
2018-Jul-07 22:46N 22°23' E 119°50'311.3
2018-Jul-07 22:30N 22°26' E 119°51'511.1
2018-Jul-07 22:00N 22°31' E 119°52'611.2
2018-Jul-07 21:30N 22°37' E 119°53'611.3
2018-Jul-07 21:00N 22°42' E 119°53'611.1
2018-Jul-07 20:30N 22°48' E 119°53'  
2018-Jul-04 15:48N 34°50' E 129°11'711.9
2018-Jul-04 15:11N 34°56' E 129°16'411.7
2018-Jul-04 14:51N 34°60' E 129°19'  

Dump ship's entire track history